createdAt,value
2023-01-30T06:02:54.501Z,18.80
2023-01-30T06:05:21.481Z,18.17
2023-01-30T06:07:48.039Z,16.60
2023-01-30T06:10:15.314Z,14.10
2023-01-30T06:12:42.315Z,13.32
2023-01-30T06:15:09.921Z,13.25
2023-01-30T06:17:36.505Z,11.18
2023-01-30T06:20:04.239Z,11.93
2023-01-30T06:22:30.815Z,10.82
2023-01-30T06:24:58.006Z,10.95
2023-01-30T06:27:24.565Z,10.20
2023-01-30T06:29:51.779Z,9.88
2023-01-30T06:32:18.356Z,11.45
2023-01-30T06:34:45.674Z,10.82
2023-01-30T06:37:12.233Z,10.55
2023-01-30T06:39:39.467Z,10.13
2023-01-30T06:42:07.097Z,12.25
2023-01-30T06:44:34.319Z,10.63
2023-01-30T06:47:00.876Z,10.45
2023-01-30T06:49:27.894Z,9.13
2023-01-30T06:51:55.104Z,9.75
2023-01-30T06:54:21.735Z,10.85
2023-01-30T06:56:49.385Z,9.80
2023-01-30T06:59:15.975Z,10.63
2023-01-30T07:01:43.485Z,11.35
2023-01-30T07:04:10.097Z,10.70
2023-01-30T07:06:39.037Z,9.07
2023-01-30T07:11:33.708Z,9.82
2023-01-30T07:14:00.267Z,8.93
2023-01-30T07:16:29.833Z,9.40
2023-01-30T07:18:58.550Z,9.07
2023-01-30T07:21:27.535Z,8.88
2023-01-30T07:23:54.140Z,8.32
2023-01-30T07:26:21.468Z,8.57
2023-01-30T07:28:48.144Z,7.63
2023-01-30T07:31:15.408Z,7.10
2023-01-30T07:33:41.925Z,7.60
2023-01-30T07:36:09.568Z,7.80
2023-01-30T07:38:36.208Z,6.82
2023-01-30T07:41:03.422Z,7.43
2023-01-30T07:43:30.149Z,7.35
2023-01-30T07:45:57.464Z,6.50
2023-01-30T07:48:24.154Z,6.72
2023-01-30T07:50:51.401Z,7.43
2023-01-30T07:53:21.051Z,6.95
2023-01-30T07:55:48.317Z,6.70
2023-01-30T07:58:15.829Z,6.70
2023-01-30T08:00:43.763Z,7.07
2023-01-30T08:03:17.240Z,6.43
2023-01-30T08:05:47.283Z,6.07
2023-01-30T08:08:14.547Z,5.82
2023-01-30T08:10:41.971Z,5.95
2023-01-30T08:13:09.731Z,4.70
2023-01-30T08:15:37.196Z,5.05
2023-01-30T08:18:03.891Z,4.60
2023-01-30T08:20:31.165Z,3.80
2023-01-30T08:22:59.587Z,3.83
2023-01-30T08:25:26.952Z,3.37
2023-01-30T08:27:53.939Z,3.35
2023-01-30T08:30:22.358Z,3.63
2023-01-30T08:33:15.980Z,3.03
2023-01-30T08:35:42.598Z,2.90
2023-01-30T08:38:09.866Z,3.83
2023-01-30T08:40:37.094Z,3.65
2023-01-30T08:43:04.750Z,3.17
2023-01-30T08:45:31.670Z,3.90
2023-01-30T08:48:05.973Z,3.83
2023-01-30T08:50:33.911Z,4.32
2023-01-30T08:53:06.959Z,3.50
2023-01-30T08:55:33.625Z,3.22
2023-01-30T08:58:00.938Z,3.40
2023-01-30T09:00:28.385Z,3.40
2023-01-30T09:02:56.344Z,4.03
2023-01-30T09:05:23.778Z,4.07
2023-01-30T09:07:51.800Z,4.28
2023-01-30T09:10:19.233Z,3.83
2023-01-30T09:12:46.908Z,4.43
2023-01-30T09:15:14.211Z,4.15
2023-01-30T09:17:41.728Z,3.83
2023-01-30T09:20:10.777Z,3.40
2023-01-30T09:22:38.336Z,4.32
2023-01-30T09:25:05.993Z,4.82
2023-01-30T09:27:33.199Z,4.72
2023-01-30T09:29:59.777Z,3.55
2023-01-30T09:32:26.968Z,4.07
2023-01-30T09:34:53.557Z,4.07
2023-01-30T09:37:27.330Z,3.72
2023-01-30T09:39:54.670Z,4.65
2023-01-30T09:42:52.237Z,3.22
2023-01-30T09:45:40.386Z,4.70
2023-01-30T09:48:19.512Z,4.40
2023-01-30T09:51:15.346Z,4.03
2023-01-30T09:54:27.726Z,3.60
2023-01-30T09:57:21.896Z,4.75
2023-01-30T10:00:47.318Z,3.90
2023-01-30T10:03:17.787Z,4.03
2023-01-30T10:05:51.919Z,6.38
2023-01-30T10:08:58.232Z,4.75
2023-01-30T10:11:56.500Z,3.75
2023-01-30T10:14:27.287Z,3.83
2023-01-30T10:17:03.242Z,4.13
2023-01-30T10:19:52.963Z,3.85
2023-01-30T10:22:48.337Z,4.45
2023-01-30T10:25:44.130Z,3.30
2023-01-30T10:28:47.647Z,3.55
2023-01-30T10:31:23.309Z,3.80
2023-01-30T10:34:07.761Z,4.38
2023-01-30T10:36:56.388Z,4.72
2023-01-30T10:39:49.585Z,4.18
2023-01-30T10:43:00.855Z,3.63
2023-01-30T10:46:12.242Z,3.78
2023-01-30T10:48:51.232Z,3.55
2023-01-30T10:51:30.139Z,3.67
2023-01-30T10:54:10.973Z,3.42
2023-01-30T10:57:11.118Z,3.28
2023-01-30T11:00:06.540Z,4.35
2023-01-30T11:02:42.407Z,3.90
2023-01-30T11:05:21.046Z,3.97
2023-01-30T11:07:54.663Z,3.85
2023-01-30T11:10:29.886Z,4.28
2023-01-30T11:13:24.530Z,3.67
2023-01-30T11:15:57.273Z,3.65
2023-01-30T11:19:18.378Z,4.88
2023-01-30T11:21:32.023Z,3.47
2023-01-30T11:24:17.407Z,4.47
2023-01-30T11:26:48.048Z,3.38
2023-01-30T11:29:27.432Z,4.20
2023-01-30T11:31:55.313Z,6.10
2023-01-30T11:34:25.286Z,4.28
2023-01-30T11:36:52.983Z,4.00
2023-01-30T11:39:23.770Z,4.32
2023-01-30T11:41:59.646Z,3.80
2023-01-30T11:44:35.923Z,5.00
2023-01-30T11:47:11.752Z,4.32
2023-01-30T11:50:01.946Z,3.60
2023-01-30T11:52:38.613Z,4.50
2023-01-30T11:55:15.797Z,4.32
2023-01-30T11:57:59.122Z,3.38
2023-01-30T12:00:39.903Z,4.00
2023-01-30T12:03:12.816Z,3.47
2023-01-30T12:05:42.909Z,3.65
2023-01-30T12:08:39.373Z,4.10
2023-01-30T12:11:26.937Z,3.88
2023-01-30T12:14:05.459Z,3.83
2023-01-30T12:17:00.278Z,3.88
2023-01-30T12:19:47.024Z,4.47
2023-01-30T12:22:30.383Z,3.22
2023-01-30T12:25:04.702Z,4.10
2023-01-30T12:27:49.332Z,4.15
2023-01-30T12:30:25.249Z,3.67
2023-01-30T12:35:46.237Z,3.45
2023-01-30T12:38:59.485Z,3.92
2023-01-30T12:41:45.125Z,6.10
2023-01-30T12:44:29.813Z,4.07
2023-01-30T12:47:05.749Z,4.70
2023-01-30T12:50:01.248Z,4.18
2023-01-30T12:52:46.731Z,3.40
2023-01-30T12:55:23.431Z,3.45
2023-01-30T12:58:12.895Z,3.63
2023-01-30T13:00:56.667Z,3.85
2023-01-30T13:03:44.520Z,2.63
2023-01-30T13:06:48.678Z,2.95
2023-01-30T13:10:05.213Z,3.70
2023-01-30T13:13:15.594Z,1.48
2023-01-30T13:15:56.347Z,2.03
2023-01-30T13:18:37.680Z,1.80
2023-01-30T13:21:28.926Z,2.08
2023-01-30T13:24:12.141Z,2.28
2023-01-30T13:26:43.033Z,3.45
2023-01-30T13:29:33.246Z,4.57
2023-01-30T13:32:03.752Z,3.72
2023-01-30T13:34:37.800Z,3.65
2023-01-30T13:37:10.987Z,4.20
2023-01-30T13:39:57.515Z,5.25
2023-01-30T13:42:53.174Z,4.45
2023-01-30T13:45:31.518Z,3.55
2023-01-30T13:48:09.060Z,4.22
2023-01-30T13:51:07.979Z,2.55
2023-01-30T13:53:54.629Z,2.90
2023-01-30T13:56:43.782Z,3.85
2023-01-30T13:59:26.020Z,3.88
2023-01-30T14:02:07.040Z,3.53
2023-01-30T14:04:40.669Z,2.92
2023-01-30T14:07:14.571Z,5.13
2023-01-30T14:09:51.008Z,3.05
2023-01-30T14:12:27.599Z,3.47
2023-01-30T14:15:03.216Z,3.55
2023-01-30T14:17:30.831Z,3.13
2023-01-30T14:20:07.122Z,2.78
2023-01-30T14:22:49.119Z,3.83
2023-01-30T14:25:25.794Z,3.33
2023-01-30T14:28:15.309Z,2.72
2023-01-30T14:30:44.791Z,2.72
2023-01-30T14:33:20.729Z,2.38
2023-01-30T14:35:49.028Z,2.40
2023-01-30T14:38:22.037Z,2.00
2023-01-30T14:41:26.264Z,2.85
2023-01-30T14:43:54.264Z,4.13
2023-01-30T14:46:21.472Z,2.00
2023-01-30T14:48:51.988Z,2.13
2023-01-30T14:51:41.033Z,2.75
2023-01-30T14:54:14.657Z,2.40
2023-01-30T14:56:54.709Z,2.63
2023-01-30T15:02:05.865Z,2.40
2023-01-30T15:05:05.911Z,4.68
2023-01-30T15:08:16.815Z,2.10
2023-01-30T15:11:13.907Z,3.13
2023-01-30T15:14:01.722Z,3.42
2023-01-30T15:16:38.365Z,3.15
2023-01-30T15:19:30.366Z,2.70
2023-01-30T15:22:13.668Z,4.35
2023-01-30T15:24:59.271Z,3.53
2023-01-30T15:27:50.888Z,2.92
2023-01-30T15:30:43.965Z,3.88
2023-01-30T15:33:29.227Z,3.00
2023-01-30T15:35:58.133Z,2.70
2023-01-30T15:38:30.938Z,3.28
2023-01-30T15:41:03.555Z,5.10
2023-01-30T15:44:01.586Z,4.78
2023-01-30T15:46:38.668Z,3.72
2023-01-30T15:49:28.176Z,3.83
2023-01-30T15:52:00.601Z,4.00
2023-01-30T15:54:28.899Z,4.13
2023-01-30T15:56:59.009Z,3.20
2023-01-30T15:59:26.853Z,2.55
2023-01-30T16:02:07.021Z,3.22
2023-01-30T16:04:35.688Z,3.05
2023-01-30T16:07:18.161Z,2.72
2023-01-30T16:10:07.168Z,2.63
2023-01-30T16:15:19.253Z,2.92
2023-01-30T16:18:06.428Z,3.53
2023-01-30T16:21:01.647Z,3.65
2023-01-30T16:23:45.864Z,3.10
2023-01-30T16:26:18.231Z,3.17
2023-01-30T16:28:53.313Z,4.15
2023-01-30T16:31:21.520Z,4.07
2023-01-30T16:33:57.960Z,3.60
2023-01-30T16:36:25.193Z,4.13
2023-01-30T16:38:54.719Z,4.45
2023-01-30T16:44:16.949Z,3.95
2023-01-30T16:46:48.687Z,5.13
2023-01-30T16:49:45.213Z,4.10
2023-01-30T16:52:18.885Z,4.20
2023-01-30T16:54:50.863Z,4.88
2023-01-30T16:57:45.603Z,4.68
2023-01-30T17:00:21.784Z,4.43
2023-01-30T17:03:05.567Z,5.10
2023-01-30T17:05:49.776Z,5.60
2023-01-30T17:08:46.194Z,5.25
2023-01-30T17:11:38.318Z,4.53
2023-01-30T17:14:26.654Z,4.93
2023-01-30T17:17:10.370Z,4.35
2023-01-30T17:19:39.749Z,5.05
2023-01-30T17:22:18.226Z,4.35
2023-01-30T17:25:06.782Z,5.22
2023-01-30T17:27:35.189Z,4.07
2023-01-30T17:30:19.273Z,4.80
2023-01-30T17:32:50.907Z,4.95
2023-01-30T17:35:20.240Z,4.95
2023-01-30T17:37:59.572Z,5.32
2023-01-30T17:40:38.131Z,4.47
2023-01-30T17:43:05.621Z,4.57
2023-01-30T17:45:33.596Z,5.40
2023-01-30T17:48:00.658Z,5.38
2023-01-30T17:50:29.051Z,4.85
2023-01-30T17:52:58.873Z,4.95
2023-01-30T17:55:28.203Z,5.43
2023-01-30T17:57:56.801Z,5.13
2023-01-30T18:00:24.961Z,5.75
2023-01-30T18:02:53.223Z,5.25
2023-01-30T18:05:23.040Z,4.43
2023-01-30T18:07:50.272Z,6.40
2023-01-30T18:10:20.189Z,5.85
2023-01-30T18:12:47.568Z,5.93
2023-01-30T18:15:16.887Z,5.88
2023-01-30T18:17:49.220Z,4.57
2023-01-30T18:20:20.465Z,4.65
2023-01-30T18:22:48.135Z,5.25
2023-01-30T18:25:16.628Z,4.78
2023-01-30T18:27:48.218Z,4.03
2023-01-30T18:30:17.939Z,5.07
2023-01-30T18:32:53.263Z,4.32
2023-01-30T18:35:23.503Z,4.80
2023-01-30T18:37:51.283Z,3.38
2023-01-30T18:40:20.977Z,2.80
2023-01-30T18:42:48.414Z,5.00
2023-01-30T18:45:16.635Z,4.38
2023-01-30T18:47:43.670Z,4.78
2023-01-30T18:50:12.407Z,4.85
2023-01-30T18:52:40.242Z,3.42
2023-01-30T18:55:08.984Z,4.30
2023-01-30T18:57:36.210Z,3.72
2023-01-30T19:00:04.043Z,5.15
2023-01-30T19:02:30.888Z,4.60
2023-01-30T19:04:58.199Z,5.03
2023-01-30T19:07:28.408Z,4.75
2023-01-30T19:09:56.810Z,4.30
2023-01-30T19:12:42.417Z,4.13
2023-01-30T19:15:10.615Z,4.60
2023-01-30T19:17:37.564Z,3.90
2023-01-30T19:20:11.343Z,4.38
2023-01-30T19:22:39.562Z,5.18
2023-01-30T19:25:07.716Z,4.20
2023-01-30T19:27:37.126Z,4.72
2023-01-30T19:32:31.273Z,3.45
2023-01-30T19:34:58.488Z,3.97
2023-01-30T19:37:25.026Z,5.15
2023-01-30T19:39:52.676Z,4.75
2023-01-30T19:42:19.743Z,5.20
2023-01-30T19:44:47.420Z,4.22
2023-01-30T19:47:14.449Z,5.03
2023-01-30T19:49:42.547Z,5.13
2023-01-30T19:52:09.247Z,5.18
2023-01-30T19:54:39.857Z,6.00
2023-01-30T19:57:09.896Z,5.05
2023-01-30T19:59:39.170Z,5.47
2023-01-30T20:02:07.345Z,4.75
2023-01-30T20:04:34.709Z,4.63
2023-01-30T20:07:01.452Z,4.75
2023-01-30T20:09:28.397Z,6.05
2023-01-30T20:11:55.196Z,4.38
2023-01-30T20:14:22.565Z,6.28
2023-01-30T20:16:49.255Z,5.38
2023-01-30T20:19:17.327Z,4.38
2023-01-30T20:21:45.177Z,4.75
2023-01-30T20:24:14.712Z,4.70
2023-01-30T20:26:41.879Z,4.70
2023-01-30T20:29:12.959Z,3.35
2023-01-30T20:31:40.201Z,4.60
2023-01-30T20:34:11.724Z,5.40
2023-01-30T20:36:38.455Z,4.18
2023-01-30T20:39:07.725Z,4.90
2023-01-30T20:41:37.487Z,4.68
2023-01-30T20:44:08.269Z,5.03
2023-01-30T20:49:49.369Z,4.63
2023-01-30T20:52:19.070Z,4.53
2023-01-30T20:54:46.902Z,6.57
2023-01-30T20:57:14.204Z,7.68
2023-01-30T20:59:42.873Z,5.13
2023-01-30T21:02:16.259Z,5.50
2023-01-30T21:04:54.354Z,6.68
2023-01-30T21:07:21.359Z,5.22
2023-01-30T21:09:48.748Z,6.10
2023-01-30T21:12:18.699Z,6.75
2023-01-30T21:15:07.449Z,5.68
